Time;durP1;ratioP1;P1;durP2;ratioP2;P2;SDS_P1;SDS_P2;PMS_P1;PMS_P2;Temp;Humidity;BMP_temperature;BMP_pressure;BME280_temperature;BME280_humidity;BME280_pressure;Samples;Min_cycle;Max_cycle;Signal;HPM_P1;HPM_P2
2022/05/22 00:01:14;;;;;;;2.47;0.88;;;20.90;53.60;;;;;;5085789;28;20097;-67
2022/05/22 00:03:40;;;;;;;4.88;1.13;;;20.80;53.50;;;;;;5075732;28;20804;-66
2022/05/22 00:06:05;;;;;;;3.00;1.33;;;20.80;53.50;;;;;;5079725;28;20132;-66
2022/05/22 00:08:31;;;;;;;2.40;0.90;;;20.80;53.50;;;;;;5078543;28;20139;-67
2022/05/22 00:10:57;;;;;;;2.50;0.90;;;20.80;53.50;;;;;;5075967;28;20044;-67
2022/05/22 00:13:23;;;;;;;2.97;1.13;;;20.80;53.50;;;;;;5078862;28;20037;-66
2022/05/22 00:18:33;;;;;;;3.70;1.17;;;20.80;53.50;;;;;;5079654;28;20056;-66
2022/05/22 00:20:58;;;;;;;2.55;0.98;;;20.80;53.50;;;;;;5080539;28;20056;-67
2022/05/22 00:23:24;;;;;;;2.78;0.80;;;20.80;53.50;;;;;;5083467;28;20414;-67
2022/05/22 00:25:50;;;;;;;2.22;1.00;;;20.80;53.50;;;;;;5081075;28;20043;-67
2022/05/22 00:28:16;;;;;;;1.63;0.90;;;20.70;53.40;;;;;;5077545;28;20040;-67
2022/05/22 00:30:41;;;;;;;1.98;0.90;;;20.80;53.50;;;;;;5080397;28;20036;-67
2022/05/22 00:33:07;;;;;;;1.52;1.00;;;20.80;53.50;;;;;;5081648;28;20046;-67
2022/05/22 00:35:33;;;;;;;1.95;0.82;;;20.80;53.50;;;;;;5083566;28;20054;-66
2022/05/22 00:37:59;;;;;;;2.90;0.93;;;20.70;53.50;;;;;;5079771;28;20044;-67
2022/05/22 00:40:24;;;;;;;3.53;1.05;;;20.70;53.50;;;;;;5082480;28;20054;-67
2022/05/22 00:42:50;;;;;;;2.03;0.80;;;20.70;53.50;;;;;;5075525;28;20047;-67
2022/05/22 00:45:19;;;;;;;1.40;0.90;;;20.70;53.50;;;;;;5080901;28;20090;-67
2022/05/22 00:47:44;;;;;;;2.63;0.82;;;20.70;53.40;;;;;;5074566;28;20040;-67
2022/05/22 00:50:11;;;;;;;3.50;1.10;;;20.70;53.50;;;;;;5081192;28;20032;-67
2022/05/22 00:52:45;;;;;;;3.70;1.20;;;20.70;53.50;;;;;;5079465;28;20253;-67
2022/05/22 00:55:18;;;;;;;2.20;0.80;;;20.70;53.40;;;;;;5074425;28;20052;-67
2022/05/22 00:57:55;;;;;;;2.83;0.90;;;20.70;53.50;;;;;;5084379;28;20398;-66
2022/05/22 01:00:26;;;;;;;2.42;1.20;;;20.70;53.50;;;;;;5078354;28;20048;-67
2022/05/22 01:05:43;;;;;;;2.22;0.93;;;20.60;53.40;;;;;;5078613;28;20048;-67
2022/05/22 01:08:09;;;;;;;2.30;1.02;;;20.70;54.00;;;;;;5083003;28;20127;-67
2022/05/22 01:10:51;;;;;;;8.70;1.30;;;20.70;53.50;;;;;;5075671;28;20087;-66
2022/05/22 01:13:24;;;;;;;2.10;0.98;;;20.60;53.40;;;;;;5083341;28;20068;-67
2022/05/22 01:15:50;;;;;;;2.10;1.00;;;20.60;53.40;;;;;;5078715;28;20068;-66
2022/05/22 01:18:16;;;;;;;3.33;1.08;;;20.60;53.40;;;;;;5079677;28;20070;-68
2022/05/22 01:20:52;;;;;;;2.72;1.05;;;20.60;53.40;;;;;;5079343;28;20182;-66
2022/05/22 01:23:19;;;;;;;1.85;1.00;;;20.60;53.40;;;;;;5077765;28;20164;-65
2022/05/22 01:25:45;;;;;;;1.42;0.90;;;20.60;53.40;;;;;;5076469;28;20047;-65
2022/05/22 01:28:14;;;;;;;2.92;1.05;;;20.60;53.50;;;;;;5079367;28;20037;-67
2022/05/22 01:30:40;;;;;;;5.10;1.00;;;20.60;53.50;;;;;;5081220;28;20044;-67
2022/05/22 01:33:07;;;;;;;1.58;0.95;;;20.60;53.50;;;;;;5075999;28;20037;-68
2022/05/22 01:35:35;;;;;;;2.85;1.25;;;20.60;53.50;;;;;;5081438;28;20032;-68
2022/05/22 01:38:01;;;;;;;;;;;20.60;53.50;;;;;;5079350;28;20040;-67
2022/05/22 01:40:27;;;;;;;1.65;0.93;;;20.60;53.50;;;;;;5079984;28;19920;-67
2022/05/22 01:42:53;;;;;;;1.40;0.80;;;20.60;53.50;;;;;;5078027;28;20036;-68
2022/05/22 01:45:22;;;;;;;3.55;1.27;;;20.60;53.50;;;;;;5082855;28;20097;-67
2022/05/22 01:47:48;;;;;;;2.45;1.13;;;20.60;53.50;;;;;;5076876;28;20044;-67
2022/05/22 01:50:14;;;;;;;2.33;0.90;;;20.60;53.50;;;;;;5080266;28;20038;-67
2022/05/22 01:52:41;;;;;;;3.75;1.23;;;20.50;53.40;;;;;;5076745;28;20127;-67
2022/05/22 01:55:09;;;;;;;2.72;1.20;;;20.60;53.60;;;;;;5078758;28;20527;-68
2022/05/22 01:57:35;;;;;;;2.28;0.95;;;20.60;53.50;;;;;;5080585;28;20443;-67
2022/05/22 02:00:01;;;;;;;1.48;0.82;;;20.50;53.40;;;;;;5083950;28;20047;-67
2022/05/22 02:02:26;;;;;;;4.03;1.00;;;20.50;53.50;;;;;;5080514;28;20479;-66
2022/05/22 02:04:52;;;;;;;3.00;1.05;;;20.50;53.50;;;;;;5083119;28;20078;-67
2022/05/22 02:10:03;;;;;;;2.95;0.95;;;20.60;53.50;;;;;;5075812;28;20071;-67
2022/05/22 02:12:30;;;;;;;2.15;0.90;;;20.50;53.50;;;;;;5083802;28;20032;-67
2022/05/22 02:14:55;;;;;;;4.68;1.13;;;20.50;53.50;;;;;;5083898;28;20132;-66
2022/05/22 02:17:21;;;;;;;2.17;0.85;;;20.50;53.60;;;;;;5082899;28;20471;-67
2022/05/22 02:19:46;;;;;;;3.25;1.10;;;20.50;53.60;;;;;;5082942;28;20039;-67
2022/05/22 02:22:12;;;;;;;2.55;1.00;;;20.50;53.60;;;;;;5081955;28;20070;-67
2022/05/22 02:24:38;;;;;;;3.15;1.15;;;20.50;53.60;;;;;;5077140;28;20052;-67
2022/05/22 02:27:08;;;;;;;1.85;0.90;;;20.50;53.50;;;;;;5086938;28;20036;-66
2022/05/22 02:29:35;;;;;;;2.40;0.90;;;20.50;53.60;;;;;;5086502;28;20040;-67
2022/05/22 02:32:02;;;;;;;3.10;1.13;;;20.40;53.50;;;;;;5083273;28;20081;-67
2022/05/22 02:34:28;;;;;;;3.03;1.08;;;20.50;53.60;;;;;;5079772;28;20040;-66
2022/05/22 02:36:54;;;;;;;2.63;0.95;;;20.50;53.70;;;;;;5081378;28;20549;-67
2022/05/22 02:39:19;;;;;;;1.80;0.90;;;20.50;53.60;;;;;;5087842;28;20474;-67
2022/05/22 02:41:45;;;;;;;3.50;1.13;;;20.40;53.60;;;;;;5085542;28;20138;-67
2022/05/22 02:44:11;;;;;;;1.95;0.85;;;20.50;53.60;;;;;;5078753;28;20044;-67
2022/05/22 02:46:37;;;;;;;3.38;1.10;;;20.40;53.50;;;;;;5081679;28;20056;-67
2022/05/22 02:49:03;;;;;;;1.73;0.90;;;20.40;53.60;;;;;;5076516;28;20131;-67
2022/05/22 02:51:29;;;;;;;2.38;0.90;;;20.40;53.60;;;;;;5087141;28;20126;-67
2022/05/22 02:53:54;;;;;;;1.95;0.90;;;20.40;53.60;;;;;;5081261;28;20058;-67
2022/05/22 02:56:23;;;;;;;2.10;1.00;;;20.40;53.60;;;;;;5080190;28;20043;-67
2022/05/22 02:58:49;;;;;;;1.65;0.90;;;20.40;53.60;;;;;;5080166;28;20487;-67
2022/05/22 03:01:14;;;;;;;2.30;1.25;;;20.40;53.60;;;;;;5079409;28;20062;-68
2022/05/22 03:03:40;;;;;;;1.75;0.90;;;20.40;53.60;;;;;;5081300;28;20040;-67
2022/05/22 03:08:51;;;;;;;1.42;0.80;;;20.40;53.60;;;;;;5085185;28;20047;-67
2022/05/22 03:11:17;;;;;;;2.10;1.00;;;20.40;53.60;;;;;;5076618;28;20402;-66
2022/05/22 03:13:42;;;;;;;2.65;1.10;;;20.40;53.70;;;;;;5083073;28;20162;-67
2022/05/22 03:16:08;;;;;;;2.40;1.08;;;20.30;53.70;;;;;;5080935;28;20503;-67
2022/05/22 03:18:34;;;;;;;2.15;0.95;;;20.30;53.60;;;;;;5083363;28;20040;-67
2022/05/22 03:21:00;;;;;;;2.00;1.10;;;20.30;53.60;;;;;;5082462;28;20056;-67
2022/05/22 03:23:25;;;;;;;3.28;1.00;;;20.40;53.60;;;;;;5078288;28;20048;-67
2022/05/22 03:25:51;;;;;;;2.17;1.05;;;20.40;53.60;;;;;;5078361;28;20078;-67
2022/05/22 03:28:17;;;;;;;2.55;1.00;;;20.40;53.70;;;;;;5077678;28;20086;-68
2022/05/22 03:30:43;;;;;;;2.03;1.10;;;20.40;53.70;;;;;;5084599;28;20044;-67
2022/05/22 03:33:10;;;;;;;2.38;1.02;;;20.40;53.70;;;;;;5083537;28;20576;-67
2022/05/22 03:35:35;;;;;;;1.77;0.95;;;20.30;53.60;;;;;;5081966;28;20479;-67
2022/05/22 03:38:03;;;;;;;1.92;0.93;;;20.30;53.60;;;;;;5081834;28;20044;-67
2022/05/22 03:40:30;;;;;;;3.53;1.10;;;20.30;53.60;;;;;;5077371;28;20045;-67
2022/05/22 03:42:56;;;;;;;2.75;0.90;;;20.30;53.70;;;;;;5077529;28;20040;-66
2022/05/22 03:45:22;;;;;;;1.85;1.00;;;20.30;53.60;;;;;;5083550;28;20390;-67
2022/05/22 03:47:48;;;;;;;1.95;0.93;;;20.30;53.60;;;;;;5085229;28;20033;-67
2022/05/22 03:50:14;;;;;;;2.03;1.00;;;20.30;53.70;;;;;;5078719;28;20047;-66
2022/05/22 03:52:43;;;;;;;2.78;1.02;;;20.30;53.60;;;;;;5081281;28;20085;-67
2022/05/22 03:55:12;;;;;;;2.38;1.00;;;20.30;53.70;;;;;;5079401;28;20046;-67
2022/05/22 03:57:38;;;;;;;2.42;1.20;;;20.30;53.60;;;;;;5086369;28;20055;-67
2022/05/22 04:00:07;;;;;;;2.63;0.90;;;20.30;53.60;;;;;;5085556;28;20032;-67
2022/05/22 04:02:33;;;;;;;4.22;1.20;;;20.30;53.60;;;;;;5081904;28;20407;-67
2022/05/22 04:04:59;;;;;;;3.78;1.00;;;20.30;53.60;;;;;;5080353;28;20028;-67
2022/05/22 04:07:25;;;;;;;3.20;1.10;;;20.30;53.60;;;;;;5075962;28;20528;-67
2022/05/22 04:09:50;;;;;;;3.95;1.10;;;20.30;53.60;;;;;;5078320;28;20534;-67
2022/05/22 04:12:16;;;;;;;2.97;1.10;;;20.30;53.60;;;;;;5078692;28;20044;-67
2022/05/22 04:14:42;;;;;;;2.25;1.08;;;20.30;53.70;;;;;;5085159;28;20063;-67
2022/05/22 04:17:08;;;;;;;2.20;0.98;;;20.30;53.60;;;;;;5079592;28;20046;-67
2022/05/22 04:19:33;;;;;;;4.32;1.10;;;20.30;53.60;;;;;;5080255;28;20403;-67
2022/05/22 04:21:59;;;;;;;2.10;1.08;;;20.30;53.60;;;;;;5072342;28;20055;-67
2022/05/22 04:27:10;;;;;;;2.42;0.95;;;20.30;53.60;;;;;;5075471;28;20036;-67
2022/05/22 04:29:36;;;;;;;3.13;1.00;;;20.30;53.70;;;;;;5084467;28;20114;-65
2022/05/22 04:32:03;;;;;;;2.38;1.00;;;20.30;53.60;;;;;;5077458;28;20638;-67
2022/05/22 04:34:29;;;;;;;1.75;0.80;;;20.30;53.70;;;;;;5078643;28;20050;-67
2022/05/22 04:36:54;;;;;;;1.90;0.90;;;20.30;53.60;;;;;;5082159;28;20059;-67
2022/05/22 04:39:20;;;;;;;3.08;1.00;;;20.30;53.70;;;;;;5079144;28;20118;-66
2022/05/22 04:41:46;;;;;;;2.05;0.90;;;20.30;53.60;;;;;;5080686;28;20052;-68
2022/05/22 04:44:11;;;;;;;1.92;1.00;;;20.30;53.60;;;;;;5080433;28;20461;-67
2022/05/22 04:46:37;;;;;;;3.42;1.02;;;20.30;53.60;;;;;;5087274;28;20066;-67
2022/05/22 04:49:03;;;;;;;1.45;0.93;;;20.30;53.60;;;;;;5081898;28;20467;-67
2022/05/22 04:51:28;;;;;;;2.30;1.20;;;20.30;53.60;;;;;;5078308;28;20143;-67
2022/05/22 04:53:54;;;;;;;2.92;0.80;;;20.30;53.60;;;;;;5080093;28;20075;-66
2022/05/22 04:56:20;;;;;;;5.22;1.10;;;20.30;53.60;;;;;;5087635;28;20047;-70
2022/05/22 04:58:47;;;;;;;3.15;1.13;;;20.30;53.60;;;;;;5088193;28;20040;-69
2022/05/22 05:01:13;;;;;;;2.47;1.10;;;20.30;53.80;;;;;;5079636;28;20032;-70
2022/05/22 05:03:39;;;;;;;3.35;1.10;;;20.30;53.80;;;;;;5078501;28;20175;-68
2022/05/22 05:06:05;;;;;;;2.92;1.00;;;20.30;54.00;;;;;;5084296;28;20483;-69
2022/05/22 05:08:32;;;;;;;4.18;1.10;;;20.30;54.00;;;;;;5077835;28;20098;-68
2022/05/22 05:10:59;;;;;;;3.58;1.10;;;20.30;54.10;;;;;;5077929;28;20035;-69
2022/05/22 05:13:26;;;;;;;6.60;0.98;;;20.30;54.10;;;;;;5079706;28;20040;-68
2022/05/22 05:16:18;;;;;;;1.95;0.90;;;20.30;54.10;;;;;;5077938;28;20047;-68
2022/05/22 05:18:44;;;;;;;2.92;1.00;;;20.40;54.20;;;;;;5077305;28;20047;-70
2022/05/22 05:21:12;;;;;;;1.55;0.90;;;20.30;54.10;;;;;;5078061;28;20052;-68
2022/05/22 05:23:38;;;;;;;2.15;1.10;;;20.40;54.20;;;;;;5079225;28;20051;-69
2022/05/22 05:26:05;;;;;;;2.15;1.02;;;20.30;54.10;;;;;;5081669;28;20029;-69
2022/05/22 05:28:31;;;;;;;1.60;0.90;;;20.30;54.20;;;;;;5084630;28;20039;-69
2022/05/22 05:30:57;;;;;;;1.80;1.00;;;20.30;54.20;;;;;;5073179;28;20051;-68
2022/05/22 05:33:24;;;;;;;2.92;1.15;;;20.30;54.20;;;;;;5074622;28;20119;-70
2022/05/22 05:35:50;;;;;;;2.53;1.05;;;20.40;54.30;;;;;;5081656;28;20487;-71
2022/05/22 05:38:15;;;;;;;1.75;0.95;;;20.40;54.40;;;;;;5078652;28;20035;-70
2022/05/22 05:40:41;;;;;;;2.75;1.05;;;20.40;54.40;;;;;;5077381;28;20035;-69
2022/05/22 05:43:08;;;;;;;2.65;0.93;;;20.40;54.40;;;;;;5079272;28;20067;-69
2022/05/22 05:45:34;;;;;;;1.95;1.00;;;20.40;54.50;;;;;;5079908;28;20037;-69
2022/05/22 05:47:59;;;;;;;1.67;1.00;;;20.40;54.50;;;;;;5083425;28;20040;-68
2022/05/22 05:50:26;;;;;;;3.38;1.15;;;20.40;54.60;;;;;;5084941;28;20122;-69
2022/05/22 05:52:58;;;;;;;6.18;1.20;;;20.50;54.70;;;;;;5082977;28;20041;-67
2022/05/22 05:55:24;;;;;;;3.40;1.00;;;20.50;54.90;;;;;;5079713;28;20372;-68
2022/05/22 05:57:50;;;;;;;3.05;1.30;;;20.50;55.00;;;;;;5083366;28;20036;-69
2022/05/22 06:00:19;;;;;;;1.98;1.00;;;20.50;55.10;;;;;;5085791;28;20495;-68
2022/05/22 06:02:46;;;;;;;3.35;1.23;;;20.50;55.20;;;;;;5080557;28;20040;-67
2022/05/22 06:05:13;;;;;;;1.73;0.90;;;20.60;55.40;;;;;;5077497;28;20578;-68
2022/05/22 06:07:39;;;;;;;2.60;1.30;;;20.60;55.50;;;;;;5083107;28;20425;-67
2022/05/22 06:10:06;;;;;;;2.47;1.10;;;20.60;55.60;;;;;;5071624;28;20037;-67
2022/05/22 06:12:33;;;;;;;2.30;1.10;;;20.60;55.60;;;;;;5080241;28;20033;-67
2022/05/22 06:14:58;;;;;;;2.85;1.10;;;20.70;55.70;;;;;;5084440;28;20044;-67
2022/05/22 06:17:39;;;;;;;2.67;1.00;;;20.70;55.80;;;;;;5076372;28;20357;-68
2022/05/22 06:20:07;;;;;;;2.15;0.93;;;20.70;55.80;;;;;;5079214;28;20037;-67
2022/05/22 06:22:34;;;;;;;2.65;1.10;;;20.80;55.80;;;;;;5084472;28;20067;-67
2022/05/22 06:25:01;;;;;;;2.42;1.00;;;20.80;55.90;;;;;;5079857;28;20051;-67
2022/05/22 06:27:27;;;;;;;3.13;1.00;;;20.80;55.90;;;;;;5089428;28;20540;-67
2022/05/22 06:29:52;;;;;;;2.03;1.15;;;20.90;55.90;;;;;;5092207;28;20127;-67
2022/05/22 06:32:19;;;;;;;3.60;1.00;;;20.90;55.90;;;;;;5097203;28;20044;-67
2022/05/22 06:34:47;;;;;;;2.95;1.17;;;21.00;56.00;;;;;;5089016;28;20036;-67
2022/05/22 06:37:26;;;;;;;3.60;1.00;;;21.00;55.90;;;;;;5077328;28;20181;-66
2022/05/22 06:40:05;;;;;;;3.05;1.20;;;21.00;56.00;;;;;;5098719;28;20051;-67
2022/05/22 06:42:40;;;;;;;2.88;1.20;;;21.10;56.00;;;;;;5086764;28;20048;-64
2022/05/22 06:45:13;;;;;;;4.65;1.25;;;21.10;56.00;;;;;;5077924;28;20035;-65
2022/05/22 06:47:42;;;;;;;3.03;1.00;;;21.20;56.10;;;;;;5092073;28;20040;-66
2022/05/22 06:50:12;;;;;;;2.78;1.00;;;21.20;56.10;;;;;;5067447;28;20063;-67
2022/05/22 06:52:38;;;;;;;3.03;1.35;;;21.30;56.10;;;;;;5100394;28;20044;-65
2022/05/22 06:55:06;;;;;;;2.90;0.90;;;21.30;56.10;;;;;;5090984;27;20046;-65
2022/05/22 06:57:32;;;;;;;3.70;1.20;;;21.30;55.90;;;;;;5106155;28;20105;-66
2022/05/22 06:59:59;;;;;;;2.58;0.90;;;21.40;55.80;;;;;;5100361;28;20490;-66
2022/05/22 07:02:27;;;;;;;2.33;0.95;;;21.40;55.60;;;;;;5094603;28;20067;-67
2022/05/22 07:04:59;;;;;;;2.40;1.17;;;21.40;55.50;;;;;;5092995;28;20032;-66
2022/05/22 07:07:25;;;;;;;2.55;1.00;;;21.40;55.50;;;;;;5107966;28;20498;-65
2022/05/22 07:09:51;;;;;;;3.00;1.05;;;21.50;55.50;;;;;;5092371;28;20528;-64
2022/05/22 07:12:18;;;;;;;7.63;1.33;;;21.50;55.40;;;;;;5107590;28;20064;-63
2022/05/22 07:14:46;;;;;;;5.75;1.50;;;21.50;55.50;;;;;;5090205;28;20387;-64
2022/05/22 07:17:13;;;;;;;6.15;1.55;;;21.50;55.60;;;;;;5113247;28;20412;-63
2022/05/22 07:19:44;;;;;;;4.95;1.50;;;21.50;55.70;;;;;;5100026;28;20044;-63
2022/05/22 07:22:10;;;;;;;6.50;1.50;;;21.50;55.70;;;;;;5087903;28;20109;-62
2022/05/22 07:24:36;;;;;;;5.85;1.40;;;21.50;55.70;;;;;;5078537;28;20391;-64
2022/05/22 07:27:02;;;;;;;6.60;1.33;;;21.50;55.80;;;;;;5082938;28;20036;-63
2022/05/22 07:29:29;;;;;;;5.15;1.50;;;21.50;55.80;;;;;;5081025;28;20044;-63
2022/05/22 07:31:56;;;;;;;7.00;1.55;;;21.60;55.80;;;;;;5091685;28;20508;-63
2022/05/22 07:34:24;;;;;;;6.07;1.45;;;21.60;55.80;;;;;;5087254;28;20040;-62
2022/05/22 07:36:59;;;;;;;3.92;1.60;;;21.60;55.70;;;;;;5085207;28;20039;-64
2022/05/22 07:39:25;;;;;;;5.97;1.52;;;21.60;55.60;;;;;;5087483;28;20047;-65
2022/05/22 07:41:50;;;;;;;7.00;1.90;;;21.60;55.60;;;;;;5085180;28;20112;-63
2022/05/22 07:44:16;;;;;;;8.02;1.73;;;21.60;55.60;;;;;;5089973;28;20094;-63
2022/05/22 07:46:42;;;;;;;6.10;1.70;;;21.60;55.50;;;;;;5077652;28;20040;-65
2022/05/22 07:49:08;;;;;;;4.13;1.60;;;21.60;55.30;;;;;;5082506;28;20036;-65
2022/05/22 07:51:34;;;;;;;4.80;2.85;;;21.60;55.20;;;;;;5080649;28;20395;-67
2022/05/22 07:54:00;;;;;;;6.68;1.58;;;21.60;55.10;;;;;;5080962;28;20041;-66
2022/05/22 07:56:26;;;;;;;6.05;1.80;;;21.70;54.90;;;;;;5083632;28;20063;-67
2022/05/22 07:58:52;;;;;;;7.00;1.95;;;21.70;54.60;;;;;;5080473;28;20039;-67
2022/05/22 08:01:18;;;;;;;9.00;2.08;;;21.60;55.30;;;;;;5078565;28;20041;-69
2022/05/22 08:03:45;;;;;;;17.05;2.28;;;21.60;54.00;;;;;;5075773;28;20047;-68
2022/05/22 08:06:12;;;;;;;9.43;1.70;;;21.50;53.90;;;;;;5061702;28;20047;-67
2022/05/22 08:08:38;;;;;;;10.00;2.00;;;21.50;54.20;;;;;;5086109;28;20040;-66
2022/05/22 08:11:04;;;;;;;6.85;1.65;;;21.50;53.60;;;;;;5086698;28;20028;-67
2022/05/22 08:13:29;;;;;;;10.15;1.90;;;21.40;53.40;;;;;;5081404;28;20036;-69
2022/05/22 08:15:55;;;;;;;7.63;2.00;;;21.40;53.20;;;;;;5082210;28;20046;-66
2022/05/22 08:18:21;;;;;;;8.30;1.73;;;21.40;53.20;;;;;;5081503;28;20045;-67
2022/05/22 08:20:49;;;;;;;10.18;1.60;;;21.40;53.10;;;;;;5081032;28;20035;-66
2022/05/22 08:23:18;;;;;;;14.70;2.22;;;21.40;52.90;;;;;;5080494;28;20047;-67
2022/05/22 08:25:44;;;;;;;8.23;1.70;;;21.50;52.90;;;;;;5077654;28;20491;-67
2022/05/22 08:28:10;;;;;;;7.68;1.70;;;21.40;52.70;;;;;;5083016;28;20037;-68
2022/05/22 08:30:37;;;;;;;10.10;1.70;;;21.40;52.60;;;;;;5086864;28;20042;-67
2022/05/22 08:33:03;;;;;;;7.47;1.70;;;21.40;52.60;;;;;;5076292;28;20051;-67
2022/05/22 08:35:37;;;;;;;9.27;1.77;;;21.50;52.60;;;;;;5085413;28;20044;-67
2022/05/22 08:38:03;;;;;;;9.57;1.73;;;21.40;52.50;;;;;;5081677;28;20563;-67
2022/05/22 08:40:50;;;;;;;6.68;1.67;;;21.40;52.40;;;;;;5085289;28;20075;-66
2022/05/22 08:43:31;;;;;;;6.53;1.80;;;21.40;51.90;;;;;;5063752;28;20048;-67
2022/05/22 08:46:11;;;;;;;7.95;1.60;;;21.40;52.10;;;;;;5081656;28;20790;-68
2022/05/22 08:48:59;;;;;;;9.35;1.83;;;21.40;52.20;;;;;;5094733;28;20047;-68
2022/05/22 08:51:43;;;;;;;8.40;1.95;;;21.40;51.90;;;;;;5079276;28;20498;-67
2022/05/22 08:54:30;;;;;;;5.93;1.40;;;21.40;52.00;;;;;;5077188;28;20098;-67
2022/05/22 08:59:46;;;;;;;8.02;1.60;;;21.40;51.90;;;;;;5084229;28;20036;-68
2022/05/22 09:02:23;;;;;;;10.15;1.98;;;21.40;51.80;;;;;;5085206;28;20507;-66
2022/05/22 09:05:07;;;;;;;8.82;1.70;;;21.40;51.50;;;;;;5081779;28;20483;-67
2022/05/22 09:07:43;;;;;;;6.20;1.40;;;21.30;51.50;;;;;;5080977;28;20052;-67
2022/05/22 09:10:19;;;;;;;7.50;1.75;;;21.40;51.70;;;;;;5067400;28;20040;-65
2022/05/22 09:13:18;;;;;;;7.05;1.65;;;21.40;51.80;;;;;;5082722;28;20036;-66
2022/05/22 09:16:05;;;;;;;4.50;1.40;;;21.40;51.60;;;;;;5082343;28;20403;-65
2022/05/22 09:18:37;;;;;;;5.45;1.50;;;21.40;51.80;;;;;;5083334;28;20064;-68
2022/05/22 09:21:21;;;;;;;5.90;1.35;;;21.40;51.80;;;;;;5080467;28;20051;-65
2022/05/22 09:23:56;;;;;;;6.10;1.42;;;21.40;51.50;;;;;;5092275;28;20055;-68
2022/05/22 09:26:39;;;;;;;8.70;1.95;;;21.30;51.30;;;;;;5080323;28;20094;-67
2022/05/22 09:29:23;;;;;;;8.05;1.70;;;21.40;50.80;;;;;;5092505;28;20039;-67
2022/05/22 09:32:24;;;;;;;6.38;1.40;;;21.30;50.60;;;;;;5101504;28;20083;-67
2022/05/22 09:34:59;;;;;;;7.13;1.58;;;21.30;50.40;;;;;;5087648;28;20386;-66
2022/05/22 09:37:41;;;;;;;9.45;1.90;;;21.30;50.50;;;;;;5109821;28;20043;-66
2022/05/22 09:40:32;;;;;;;4.85;1.48;;;21.20;50.30;;;;;;5083942;28;20952;-68
2022/05/22 09:43:33;;;;;;;5.28;1.92;;;21.20;50.40;;;;;;5091635;28;20475;-65
2022/05/22 09:46:12;;;;;;;8.05;1.60;;;21.20;50.30;;;;;;5085017;28;20437;-67
2022/05/22 09:49:13;;;;;;;7.72;1.65;;;21.30;50.50;;;;;;5109157;28;20035;-64
2022/05/22 09:52:05;;;;;;;9.60;1.50;;;21.30;50.30;;;;;;5099782;28;20044;-64
2022/05/22 09:54:36;;;;;;;7.20;1.35;;;21.20;50.50;;;;;;5089337;28;20036;-65
2022/05/22 09:57:34;;;;;;;8.32;1.60;;;21.20;50.00;;;;;;5102210;28;20137;-66
2022/05/22 10:00:26;;;;;;;5.45;1.30;;;21.20;49.10;;;;;;5076554;28;20131;-68
2022/05/22 10:03:13;;;;;;;6.03;1.33;;;21.20;49.20;;;;;;5074380;28;20047;-68
2022/05/22 10:06:08;;;;;;;4.55;1.20;;;21.20;49.30;;;;;;5091810;28;20040;-69
2022/05/22 10:09:00;;;;;;;6.18;1.42;;;21.20;49.40;;;;;;5097643;28;20130;-68
2022/05/22 10:12:16;;;;;;;6.30;1.30;;;21.20;49.70;;;;;;5072195;28;20032;-68
2022/05/22 10:14:53;;;;;;;5.43;1.50;;;21.20;50.20;;;;;;5024334;28;20048;-67
2022/05/22 10:17:44;;;;;;;9.55;1.60;;;21.20;50.10;;;;;;5030019;28;20087;-67
2022/05/22 10:20:19;;;;;;;8.50;1.70;;;21.20;49.90;;;;;;5070077;28;20097;-67
2022/05/22 10:23:12;;;;;;;6.35;1.30;;;21.20;50.10;;;;;;5076291;28;20375;-67
2022/05/22 10:26:28;;;;;;;7.88;1.40;;;21.20;50.00;;;;;;5084163;28;20628;-66
2022/05/22 10:29:05;;;;;;;4.22;1.10;;;21.20;49.70;;;;;;5084288;28;20510;-65
2022/05/22 10:31:50;;;;;;;8.80;1.52;;;21.20;49.80;;;;;;5076261;28;20055;-67
2022/05/22 10:34:26;;;;;;;3.88;1.42;;;21.20;49.80;;;;;;5092140;28;20028;-69
2022/05/22 10:36:56;;;;;;;6.57;1.55;;;21.20;49.90;;;;;;5081023;28;20046;-67
2022/05/22 10:39:22;;;;;;;7.82;1.45;;;21.30;49.80;;;;;;5074100;28;20064;-66
2022/05/22 10:44:40;;;;;;;4.25;1.20;;;21.30;49.80;;;;;;5093773;28;20048;-67
2022/05/22 10:47:07;;;;;;;5.97;1.38;;;21.30;49.60;;;;;;5093410;28;20086;-67
2022/05/22 10:49:39;;;;;;;7.88;1.52;;;21.30;49.50;;;;;;5091662;28;20040;-68
2022/05/22 10:52:06;;;;;;;10.25;1.80;;;21.30;49.40;;;;;;5092444;28;20035;-66
2022/05/22 10:54:45;;;;;;;5.28;1.40;;;21.30;49.50;;;;;;5111216;28;20482;-68
2022/05/22 10:57:18;;;;;;;6.07;1.35;;;21.30;49.60;;;;;;5091212;28;20361;-68
2022/05/22 10:59:45;;;;;;;6.50;1.20;;;21.40;49.60;;;;;;5087743;28;20055;-67
2022/05/22 11:02:17;;;;;;;8.65;1.42;;;21.40;49.20;;;;;;5103811;28;20084;-68
2022/05/22 11:04:44;;;;;;;9.20;1.33;;;21.40;49.20;;;;;;5089376;28;20031;-67
2022/05/22 11:07:11;;;;;;;10.25;1.38;;;21.40;49.60;;;;;;5094666;28;20051;-66
2022/05/22 11:09:49;;;;;;;4.85;1.33;;;21.40;49.60;;;;;;5103005;28;20040;-67
2022/05/22 11:12:23;;;;;;;5.93;1.45;;;21.40;49.30;;;;;;5104421;28;20459;-65
2022/05/22 11:14:49;;;;;;;6.80;1.30;;;21.40;49.40;;;;;;5087116;28;20090;-67
2022/05/22 11:17:16;;;;;;;4.60;1.10;;;21.40;49.50;;;;;;5088300;28;20166;-67
2022/05/22 11:19:45;;;;;;;6.75;1.50;;;21.40;49.70;;;;;;5091818;28;20043;-68
2022/05/22 11:22:20;;;;;;;6.25;1.60;;;21.40;49.80;;;;;;5085783;28;20410;-68
2022/05/22 11:25:11;;;;;;;7.00;1.20;;;21.40;50.00;;;;;;5076918;28;20494;-68
2022/05/22 11:27:51;;;;;;;6.50;1.00;;;21.50;50.10;;;;;;5090837;28;20044;-68
2022/05/22 11:30:39;;;;;;;4.25;1.40;;;21.50;50.20;;;;;;5102238;28;20036;-68
2022/05/22 11:33:18;;;;;;;4.40;1.25;;;21.60;50.40;;;;;;5092732;28;20055;-69
2022/05/22 11:35:53;;;;;;;5.90;1.38;;;21.60;50.50;;;;;;5082264;28;20052;-66
2022/05/22 11:38:42;;;;;;;5.65;1.27;;;21.60;50.60;;;;;;5091080;28;20040;-67
2022/05/22 11:41:49;;;;;;;4.82;1.20;;;21.70;50.80;;;;;;5096958;28;20036;-67
2022/05/22 11:44:36;;;;;;;5.88;1.55;;;21.70;50.50;;;;;;5088067;28;20040;-68
2022/05/22 11:47:30;;;;;;;7.50;1.42;;;21.80;50.40;;;;;;5073157;28;20036;-69
2022/05/22 11:50:08;;;;;;;7.07;1.20;;;21.90;50.50;;;;;;5089796;28;20541;-66
2022/05/22 11:52:55;;;;;;;4.00;1.08;;;21.90;50.40;;;;;;5088252;28;20432;-67
2022/05/22 11:55:43;;;;;;;6.30;1.13;;;21.90;50.50;;;;;;5092428;28;20048;-69
2022/05/22 11:58:21;;;;;;;5.82;1.35;;;21.90;50.50;;;;;;5107073;28;20394;-68
2022/05/22 12:01:14;;;;;;;6.43;1.30;;;21.90;50.50;;;;;;5091653;28;20048;-67
2022/05/22 12:04:09;;;;;;;7.78;1.25;;;21.90;50.50;;;;;;5100528;28;20051;-68
2022/05/22 12:06:54;;;;;;;6.05;1.35;;;21.90;50.50;;;;;;5089035;28;20093;-69
2022/05/22 12:09:26;;;;;;;4.97;1.30;;;22.00;50.40;;;;;;5088931;28;20495;-68
2022/05/22 12:11:58;;;;;;;6.53;1.13;;;22.00;50.30;;;;;;5080573;28;20083;-67
2022/05/22 12:15:01;;;;;;;3.88;1.17;;;22.00;50.10;;;;;;5075752;28;20123;-68
2022/05/22 12:18:05;;;;;;;4.68;1.10;;;22.00;49.60;;;;;;5087567;28;20040;-67
2022/05/22 12:21:02;;;;;;;2.90;1.00;;;22.00;49.60;;;;;;5050840;28;20448;-68
2022/05/22 12:23:34;;;;;;;3.92;1.10;;;22.00;49.60;;;;;;5078272;28;20083;-67
2022/05/22 12:26:04;;;;;;;4.40;1.17;;;22.00;49.70;;;;;;5093755;28;20436;-68
2022/05/22 12:28:51;;;;;;;7.00;1.35;;;22.10;49.60;;;;;;5075993;28;20520;-67
2022/05/22 12:31:25;;;;;;;5.33;1.33;;;22.10;49.60;;;;;;5111065;28;20043;-66
2022/05/22 12:33:53;;;;;;;4.68;1.33;;;22.10;49.20;;;;;;5098413;28;20451;-66
2022/05/22 12:36:29;;;;;;;4.90;1.10;;;22.00;48.50;;;;;;5088320;28;20059;-66
2022/05/22 12:39:12;;;;;;;5.68;1.10;;;22.00;48.00;;;;;;5086210;28;20040;-65
2022/05/22 12:42:06;;;;;;;5.20;1.20;;;22.00;48.20;;;;;;5110738;28;20053;-65
2022/05/22 12:44:33;;;;;;;4.32;1.20;;;21.90;47.90;;;;;;5084519;28;20105;-65
2022/05/22 12:46:59;;;;;;;7.55;1.73;;;21.90;48.10;;;;;;5105190;28;20066;-66
2022/05/22 12:49:27;;;;;;;7.45;1.02;;;21.90;47.80;;;;;;5076338;28;20036;-65
2022/05/22 12:52:06;;;;;;;6.55;1.27;;;21.90;47.80;;;;;;5081732;28;20047;-65
2022/05/22 12:54:35;;;;;;;7.32;1.60;;;21.90;47.80;;;;;;5088446;28;20032;-65
2022/05/22 12:57:18;;;;;;;4.40;0.98;;;21.90;47.90;;;;;;5088796;28;20043;-65
2022/05/22 12:59:56;;;;;;;7.43;1.23;;;22.00;48.10;;;;;;5090135;28;20050;-65
2022/05/22 13:02:36;;;;;;;9.02;1.60;;;22.00;48.00;;;;;;5090009;28;20044;-65
2022/05/22 13:05:15;;;;;;;7.05;1.38;;;22.00;47.70;;;;;;5082699;28;20032;-65
2022/05/22 13:07:42;;;;;;;3.75;1.02;;;22.00;48.00;;;;;;5085252;28;20123;-65
2022/05/22 13:10:54;;;;;;;7.03;1.58;;;22.00;47.60;;;;;;5085826;28;20090;-65
2022/05/22 13:13:29;;;;;;;6.35;1.73;;;22.00;47.30;;;;;;5049144;28;20052;-65
2022/05/22 13:16:06;;;;;;;5.78;1.30;;;22.00;47.30;;;;;;5088636;28;20500;-65
2022/05/22 13:18:33;;;;;;;6.50;1.48;;;22.00;47.00;;;;;;5083403;28;20041;-65
2022/05/22 13:21:02;;;;;;;4.70;1.30;;;21.90;47.10;;;;;;5082795;28;20044;-65
2022/05/22 13:23:39;;;;;;;7.45;1.08;;;22.00;47.20;;;;;;5084910;28;20039;-65
2022/05/22 13:26:26;;;;;;;7.97;1.20;;;21.90;47.10;;;;;;5088119;28;20048;-65
2022/05/22 13:29:15;;;;;;;5.68;1.10;;;22.00;46.90;;;;;;5089364;28;20494;-66
2022/05/22 13:31:43;;;;;;;6.38;1.30;;;21.80;46.80;;;;;;5089178;28;20107;-66